Time;durP1;ratioP1;P1;durP2;ratioP2;P2;SDS_P1;SDS_P2;PMS_P1;PMS_P2;Temp;Humidity;BMP_temperature;BMP_pressure;BME280_temperature;BME280_humidity;BME280_pressure;Samples;Min_cycle;Max_cycle;Signal;HPM_P1;HPM_P2
2023/12/12 00:00:49;;;;;;;33.80;11.27;;;;;;;5.40;71.23;98934.94;5095314;28;20196;-85
2023/12/12 00:03:16;;;;;;;68.57;11.47;;;;;;;5.33;70.77;98941.25;5094376;28;20217;-85
2023/12/12 00:05:43;;;;;;;36.93;11.90;;;;;;;5.31;70.87;98948.28;5094957;28;20171;-84
2023/12/12 00:08:10;;;;;;;23.93;8.13;;;;;;;5.24;70.91;98957.16;5094472;28;20200;-84
2023/12/12 00:10:35;;;;;;;37.33;9.27;;;;;;;5.17;70.61;98960.88;5095144;28;20259;-84
2023/12/12 00:13:01;;;;;;;32.13;8.83;;;;;;;4.98;71.41;98954.59;5094214;28;20219;-84
2023/12/12 00:15:27;;;;;;;24.17;7.63;;;;;;;4.93;71.68;98952.16;5095103;28;20570;-84
2023/12/12 00:17:54;;;;;;;29.63;8.83;;;;;;;4.85;72.11;98953.28;5076711;28;20187;-84
2023/12/12 00:20:19;;;;;;;19.30;8.37;;;;;;;4.88;72.09;98946.25;5094357;28;20183;-85
2023/12/12 00:22:45;;;;;;;33.73;11.47;;;;;;;4.97;71.73;98956.34;5075970;28;20173;-84
2023/12/12 00:25:11;;;;;;;37.67;10.97;;;;;;;5.05;71.43;98953.50;5076459;28;20187;-85
2023/12/12 00:27:38;;;;;;;22.10;8.17;;;;;;;5.07;71.59;98946.50;5094523;28;20208;-84
2023/12/12 00:30:04;;;;;;;20.07;8.50;;;;;;;5.15;71.79;98952.28;5076046;28;20294;-84
2023/12/12 00:32:30;;;;;;;45.23;7.63;;;;;;;5.21;71.27;98951.25;5094051;28;20231;-85
2023/12/12 00:34:56;;;;;;;25.13;8.70;;;;;;;5.28;71.51;98937.97;5076200;28;20620;-84
2023/12/12 00:37:23;;;;;;;23.37;8.97;;;;;;;5.22;71.34;98937.31;5094075;28;20186;-85
2023/12/12 00:39:49;;;;;;;27.87;9.03;;;;;;;5.27;71.10;98932.81;5093959;28;20213;-85
2023/12/12 00:42:16;;;;;;;22.70;8.47;;;;;;;5.35;70.87;98942.06;5093796;28;20606;-84
2023/12/12 00:44:43;;;;;;;21.53;9.67;;;;;;;5.39;71.26;98941.06;5093939;28;20191;-85
2023/12/12 00:47:10;;;;;;;43.23;10.03;;;;;;;5.40;70.98;98942.75;5093662;28;20249;-85
2023/12/12 00:49:37;;;;;;;23.70;8.57;;;;;;;5.41;70.95;98944.44;5094027;28;20711;-84
2023/12/12 00:52:02;;;;;;;17.80;7.47;;;;;;;5.51;70.10;98937.16;5093484;28;20615;-85
2023/12/12 00:54:28;;;;;;;34.63;9.27;;;;;;;5.48;70.21;98926.88;5094051;28;20176;-84
2023/12/12 00:56:54;;;;;;;26.90;9.73;;;;;;;5.38;70.53;98922.91;5093625;28;20630;-85
2023/12/12 00:59:21;;;;;;;21.77;9.17;;;;;;;5.22;70.45;98920.00;5093698;28;20241;-85
2023/12/12 01:01:47;;;;;;;18.73;8.33;;;;;;;5.22;70.61;98911.34;5093461;28;20183;-85
2023/12/12 01:04:14;;;;;;;21.30;8.93;;;;;;;5.32;70.68;98910.97;5075667;28;20187;-85
2023/12/12 01:06:41;;;;;;;37.27;9.80;;;;;;;5.42;70.60;98899.34;5093696;28;20172;-85
2023/12/12 01:09:08;;;;;;;27.87;8.33;;;;;;;5.50;70.43;98896.50;5093312;28;20262;-85
2023/12/12 01:11:34;;;;;;;34.87;10.80;;;;;;;5.41;70.52;98882.06;5093293;28;20622;-85
2023/12/12 01:14:01;;;;;;;30.17;8.83;;;;;;;5.44;70.54;98881.97;5075310;28;20563;-85
2023/12/12 01:16:27;;;;;;;27.00;9.70;;;;;;;5.47;70.81;98881.88;5075579;28;20626;-84
2023/12/12 01:18:52;;;;;;;22.20;9.47;;;;;;;5.44;70.69;98886.31;5093118;28;20207;-85
2023/12/12 01:21:19;;;;;;;21.87;8.47;;;;;;;5.49;70.52;98882.66;5075627;28;20611;-85
2023/12/12 01:23:53;;;;;;;26.07;10.10;;;;;;;5.48;70.15;98880.94;5075191;28;20287;-84
2023/12/12 01:26:22;;;;;;;22.80;9.23;;;;;;;5.43;70.09;98880.25;5075447;28;20639;-85
2023/12/12 01:28:48;;;;;;;24.40;9.53;;;;;;;5.45;70.04;98881.03;5093196;28;20228;-85
2023/12/12 01:31:16;;;;;;;20.20;8.30;;;;;;;5.53;70.18;98880.75;5093202;28;20586;-84
2023/12/12 01:33:43;;;;;;;25.43;10.33;;;;;;;5.54;69.93;98883.31;5089136;28;20188;-84
2023/12/12 01:36:10;;;;;;;26.67;10.10;;;;;;;5.65;69.78;98877.75;5072971;28;20208;-84
2023/12/12 01:38:37;;;;;;;29.20;10.03;;;;;;;5.66;69.71;98881.19;5055270;28;20181;-84
2023/12/12 01:41:04;;;;;;;22.90;8.97;;;;;;;5.62;69.86;98901.25;5086054;28;20180;-84
2023/12/12 01:43:32;;;;;;;27.13;10.97;;;;;;;5.57;70.10;98893.63;5092934;28;20196;-85
2023/12/12 01:46:09;;;;;;;22.83;9.87;;;;;;;5.59;69.91;98886.59;5093187;28;20176;-84
2023/12/12 01:48:36;;;;;;;26.83;11.20;;;;;;;5.63;69.59;98886.50;5092919;28;20192;-85
2023/12/12 01:51:04;;;;;;;26.03;9.33;;;;;;;5.57;69.41;98883.22;5093526;28;20180;-84
2023/12/12 01:53:46;;;;;;;28.13;9.37;;;;;;;5.62;69.64;98908.19;5093201;28;20286;-84
2023/12/12 01:56:13;;;;;;;26.00;10.87;;;;;;;5.68;69.61;98903.63;5096931;28;20515;-84
2023/12/12 01:58:44;;;;;;;30.10;10.63;;;;;;;5.77;69.30;98892.00;5097012;28;20215;-85
2023/12/12 02:01:11;;;;;;;25.60;10.97;;;;;;;5.76;69.23;98879.94;5097615;28;20203;-85
2023/12/12 02:03:40;;;;;;;20.30;9.30;;;;;;;5.79;69.50;98877.22;5096943;28;20183;-85
2023/12/12 02:06:08;;;;;;;25.30;10.00;;;;;;;5.81;69.04;98883.22;5096945;28;20176;-85
2023/12/12 02:08:34;;;;;;;23.47;8.77;;;;;;;5.71;69.00;98874.06;5097176;28;20188;-85
2023/12/12 02:11:00;;;;;;;20.97;8.67;;;;;;;5.74;69.33;98889.56;5079024;28;20180;-84
2023/12/12 02:13:25;;;;;;;20.17;9.47;;;;;;;5.64;69.40;98888.19;5114330;28;20218;-84
2023/12/12 02:15:51;;;;;;;23.27;8.80;;;;;;;5.57;69.54;98897.97;5116884;28;20174;-84
2023/12/12 02:18:18;;;;;;;20.13;7.13;;;;;;;5.64;69.80;98899.44;5117633;28;20184;-84
2023/12/12 02:20:45;;;;;;;34.40;9.97;;;;;;;5.67;69.86;98882.88;5117184;28;20193;-84
2023/12/12 02:23:10;;;;;;;19.80;9.47;;;;;;;5.67;69.53;98877.66;5117630;28;20179;-84
2023/12/12 02:25:37;;;;;;;23.90;8.13;;;;;;;5.64;70.40;98882.97;5117078;28;20248;-84
2023/12/12 02:28:03;;;;;;;28.27;8.77;;;;;;;5.73;69.85;98883.50;5116907;28;20171;-84
2023/12/12 02:30:30;;;;;;;45.77;9.80;;;;;;;5.75;69.75;98880.84;5117070;28;20198;-85
2023/12/12 02:32:58;;;;;;;24.10;7.17;;;;;;;5.79;69.52;98877.22;5098932;28;20599;-84
2023/12/12 02:35:24;;;;;;;19.83;8.33;;;;;;;5.76;69.11;98873.00;5098634;28;20182;-85
2023/12/12 02:37:50;;;;;;;25.17;8.43;;;;;;;5.74;69.67;98863.56;5116826;28;20254;-84
2023/12/12 02:40:17;;;;;;;19.80;8.53;;;;;;;5.75;70.13;98860.03;5117034;28;20171;-85
2023/12/12 02:42:45;;;;;;;37.07;11.40;;;;;;;5.72;70.12;98860.13;5096404;28;20183;-84
2023/12/12 02:45:11;;;;;;;22.97;9.50;;;;;;;5.78;70.39;98859.91;5106711;28;20560;-84
2023/12/12 02:47:38;;;;;;;17.97;9.70;;;;;;;5.77;70.51;98853.88;5098641;28;20590;-84
2023/12/12 02:50:05;;;;;;;18.90;8.10;;;;;;;5.87;69.90;98859.63;5098541;28;20199;-84
2023/12/12 02:52:31;;;;;;;25.70;8.77;;;;;;;5.91;70.26;98845.56;5098301;28;20190;-84
2023/12/12 02:54:58;;;;;;;19.20;8.53;;;;;;;5.79;70.13;98849.44;5116487;28;20257;-84
2023/12/12 02:57:25;;;;;;;32.87;8.47;;;;;;;5.76;70.51;98852.19;5098049;28;20180;-84
2023/12/12 02:59:51;;;;;;;23.00;8.67;;;;;;;5.83;70.42;98856.25;5116644;28;20544;-85
2023/12/12 03:02:18;;;;;;;24.47;10.40;;;;;;;5.84;70.32;98867.50;5098222;28;20610;-84
2023/12/12 03:04:45;;;;;;;19.90;8.83;;;;;;;5.87;70.23;98880.44;5116573;28;20175;-84
2023/12/12 03:07:12;;;;;;;25.93;10.50;;;;;;;5.85;70.69;98882.22;5116212;28;20168;-84
2023/12/12 03:09:39;;;;;;;26.70;9.97;;;;;;;5.90;70.56;98885.47;5115989;28;20199;-85
2023/12/12 03:12:05;;;;;;;25.27;10.13;;;;;;;5.90;70.25;98869.88;5116408;28;20175;-85
2023/12/12 03:14:31;;;;;;;34.87;10.93;;;;;;;5.83;70.04;98873.59;5115950;28;20199;-85
2023/12/12 03:16:58;;;;;;;26.97;9.07;;;;;;;5.80;70.68;98873.69;5116376;28;20186;-84
2023/12/12 03:19:24;;;;;;;26.93;10.17;;;;;;;5.78;70.30;98872.91;5097930;28;20186;-85
2023/12/12 03:21:51;;;;;;;26.63;10.30;;;;;;;5.69;70.36;98865.44;5098018;28;20188;-85
2023/12/12 03:24:18;;;;;;;27.73;9.57;;;;;;;5.50;70.59;98875.69;5098505;28;20206;-85
2023/12/12 03:26:44;;;;;;;36.70;10.43;;;;;;;5.44;71.84;98883.72;5116023;28;20190;-85
2023/12/12 03:29:11;;;;;;;28.23;8.87;;;;;;;5.50;71.50;98881.72;5116028;28;20198;-85
2023/12/12 03:31:39;;;;;;;27.83;9.60;;;;;;;5.48;71.72;98885.28;5097782;28;20200;-84
2023/12/12 03:34:06;;;;;;;29.77;9.77;;;;;;;5.22;71.98;98869.78;5115528;28;20187;-85
2023/12/12 03:36:32;;;;;;;26.30;10.63;;;;;;;5.15;72.57;98863.97;5115899;28;20172;-84
2023/12/12 03:38:57;;;;;;;29.17;10.00;;;;;;;5.21;72.32;98862.91;5115724;28;20275;-85
2023/12/12 03:41:24;;;;;;;24.00;9.70;;;;;;;5.17;72.78;98858.69;5115464;28;20190;-84
2023/12/12 03:43:51;;;;;;;28.93;10.77;;;;;;;5.15;72.80;98858.75;5116038;28;20263;-84
2023/12/12 03:46:20;;;;;;;23.80;10.40;;;;;;;5.15;73.02;98858.75;5097508;28;20262;-84
2023/12/12 03:48:47;;;;;;;28.27;10.57;;;;;;;5.18;73.12;98858.66;5097120;28;20231;-85
2023/12/12 03:51:13;;;;;;;22.03;9.37;;;;;;;5.31;72.76;98854.72;5115631;28;20171;-84
2023/12/12 03:53:40;;;;;;;22.47;9.20;;;;;;;5.30;72.33;98855.63;5115767;28;20702;-84
2023/12/12 03:56:09;;;;;;;26.00;10.83;;;;;;;5.36;72.80;98850.22;5115310;28;20189;-84
2023/12/12 03:58:36;;;;;;;39.37;10.90;;;;;;;5.46;72.70;98859.34;5115538;28;20245;-85
2023/12/12 04:01:03;;;;;;;33.37;11.23;;;;;;;5.54;72.56;98844.34;5115038;28;20180;-85
2023/12/12 04:03:31;;;;;;;37.70;12.63;;;;;;;5.50;71.79;98847.13;5097029;28;20175;-84
2023/12/12 04:06:00;;;;;;;25.80;10.63;;;;;;;5.50;72.00;98847.13;5097190;28;20265;-85
2023/12/12 04:08:26;;;;;;;26.50;10.73;;;;;;;5.65;72.21;98861.28;5115115;28;20274;-84
2023/12/12 04:10:52;;;;;;;27.93;10.57;;;;;;;5.70;71.59;98862.81;5097026;28;20279;-85
2023/12/12 04:13:17;;;;;;;41.43;15.67;;;;;;;5.67;71.57;98862.91;5114526;28;20244;-85
2023/12/12 04:15:44;;;;;;;27.77;11.50;;;;;;;5.60;71.55;98861.47;5114923;28;20179;-85
2023/12/12 04:18:09;;;;;;;32.63;14.60;;;;;;;5.61;72.04;98863.13;5096290;28;20534;-84
2023/12/12 04:20:36;;;;;;;40.23;13.20;;;;;;;5.69;71.84;98870.66;5115128;28;20175;-85
2023/12/12 04:23:04;;;;;;;29.57;12.33;;;;;;;5.77;71.73;98879.00;5113562;28;20266;-84
2023/12/12 04:25:30;;;;;;;20.53;10.50;;;;;;;5.81;71.42;98881.47;5115286;28;20183;-85
2023/12/12 04:27:56;;;;;;;22.03;8.90;;;;;;;5.84;71.07;98889.16;5114540;28;20176;-84
2023/12/12 04:30:23;;;;;;;24.23;8.97;;;;;;;5.79;71.02;98909.25;5096652;28;20198;-84
2023/12/12 04:32:50;;;;;;;25.83;10.40;;;;;;;5.77;70.92;98902.41;5114369;28;20184;-85
2023/12/12 04:35:19;;;;;;;22.87;9.33;;;;;;;5.85;70.64;98909.06;5096534;28;20234;-85
2023/12/12 04:37:46;;;;;;;19.83;9.37;;;;;;;5.86;70.78;98908.19;5115008;28;20175;-85
2023/12/12 04:40:12;;;;;;;20.23;9.23;;;;;;;5.83;70.05;98894.41;5114271;28;20183;-85
2023/12/12 04:42:38;;;;;;;20.00;8.63;;;;;;;5.76;70.26;98896.41;5114532;28;20528;-85
2023/12/12 04:45:05;;;;;;;24.80;8.47;;;;;;;5.76;70.61;98882.53;5114949;28;20253;-85
2023/12/12 04:47:32;;;;;;;20.93;9.30;;;;;;;5.81;70.35;98891.88;5096397;28;20179;-85
2023/12/12 04:49:59;;;;;;;19.50;8.83;;;;;;;5.87;70.03;98883.03;5096065;28;20577;-85
2023/12/12 04:52:27;;;;;;;23.50;9.83;;;;;;;5.85;70.13;98882.22;5114797;28;20610;-85
2023/12/12 04:54:53;;;;;;;26.83;10.70;;;;;;;5.86;69.80;98878.72;5114006;28;20179;-85
2023/12/12 04:57:20;;;;;;;17.77;8.63;;;;;;;5.84;69.99;98889.16;5114195;28;20171;-85
2023/12/12 04:59:47;;;;;;;19.30;8.40;;;;;;;5.87;70.38;98883.03;5096456;28;20176;-85
2023/12/12 05:02:13;;;;;;;21.53;8.27;;;;;;;5.86;69.65;98879.56;5095645;28;20255;-85
2023/12/12 05:04:41;;;;;;;14.40;7.67;;;;;;;5.81;70.21;98860.66;5114004;28;20181;-85
2023/12/12 05:07:06;;;;;;;18.37;7.93;;;;;;;5.84;70.33;98863.16;5096192;28;20333;-84
2023/12/12 05:09:33;;;;;;;17.23;7.53;;;;;;;5.91;70.57;98856.84;5096106;28;20286;-85
2023/12/12 05:12:00;;;;;;;23.90;8.93;;;;;;;5.91;70.31;98861.19;5114321;28;20683;-85
2023/12/12 05:14:26;;;;;;;20.23;7.47;;;;;;;5.99;70.85;98859.13;5095815;28;20199;-85
2023/12/12 05:16:52;;;;;;;19.60;8.37;;;;;;;6.01;70.58;98872.94;5113782;28;20175;-85
2023/12/12 05:19:19;;;;;;;18.33;8.50;;;;;;;6.11;69.92;98887.28;5113923;28;20739;-85
2023/12/12 05:21:44;;;;;;;21.57;9.90;;;;;;;6.16;70.16;98887.94;5095939;28;20184;-85
2023/12/12 05:24:10;;;;;;;23.77;10.63;;;;;;;6.21;69.85;98893.81;5095799;28;20188;-85
2023/12/12 05:26:37;;;;;;;24.90;10.47;;;;;;;6.19;69.44;98890.44;5114085;28;20186;-85
2023/12/12 05:29:04;;;;;;;30.60;10.33;;;;;;;6.16;69.92;98878.38;5112770;28;20200;-85
2023/12/12 05:31:31;;;;;;;25.60;9.77;;;;;;;6.15;69.74;98870.66;5095815;28;20200;-85
2023/12/12 05:33:57;;;;;;;20.93;10.57;;;;;;;6.20;70.01;98879.13;5095659;28;20204;-85
2023/12/12 05:36:24;;;;;;;25.97;10.47;;;;;;;6.23;70.19;98897.22;5095774;28;20187;-85
2023/12/12 05:38:51;;;;;;;19.20;9.73;;;;;;;6.18;70.09;98891.34;5113775;28;20622;-85
2023/12/12 05:41:16;;;;;;;22.90;9.60;;;;;;;6.14;70.04;98890.63;5113617;28;20175;-85
2023/12/12 05:43:43;;;;;;;20.13;10.07;;;;;;;6.09;70.03;98883.88;5095680;28;20190;-85
2023/12/12 05:46:10;;;;;;;31.90;13.77;;;;;;;6.16;70.12;98890.53;5095648;28;20622;-85
2023/12/12 05:48:36;;;;;;;30.67;12.40;;;;;;;6.18;69.75;98897.38;5113156;28;20704;-85
2023/12/12 05:51:03;;;;;;;24.67;11.60;;;;;;;6.23;70.26;98898.97;5095510;28;20199;-85
2023/12/12 05:53:29;;;;;;;26.83;12.00;;;;;;;6.27;70.41;98890.13;5095612;28;20175;-85
2023/12/12 05:55:56;;;;;;;27.07;11.80;;;;;;;6.16;70.17;98874.94;5114035;28;20168;-85
2023/12/12 05:58:22;;;;;;;43.07;19.20;;;;;;;6.29;70.74;98876.16;5113320;28;20183;-85
2023/12/12 06:00:51;;;;;;;66.87;31.87;;;;;;;6.42;69.63;98884.34;5095806;28;20709;-85
2023/12/12 06:03:17;;;;;;;52.07;26.57;;;;;;;6.51;69.89;98895.22;5095269;28;20172;-85
2023/12/12 06:05:44;;;;;;;37.23;18.83;;;;;;;6.58;69.54;98886.25;5095597;28;20171;-85
2023/12/12 06:08:11;;;;;;;30.10;13.17;;;;;;;6.60;69.71;98887.03;5095740;28;20543;-85
2023/12/12 06:10:38;;;;;;;28.73;11.97;;;;;;;6.45;69.87;98885.03;5113274;28;20171;-85
2023/12/12 06:13:04;;;;;;;29.77;14.60;;;;;;;6.39;70.29;98887.91;5094765;28;20537;-85
2023/12/12 06:15:30;;;;;;;23.37;11.60;;;;;;;6.49;70.29;98890.97;5113834;28;20152;-85
2023/12/12 06:17:57;;;;;;;19.33;9.83;;;;;;;6.63;70.14;98894.72;5113480;28;20176;-85
2023/12/12 06:20:23;;;;;;;17.47;8.17;;;;;;;6.70;70.09;98896.19;5095300;28;20184;-85
2023/12/12 06:22:48;;;;;;;17.77;8.10;;;;;;;6.76;70.24;98898.50;5095099;28;20194;-85
2023/12/12 06:25:15;;;;;;;15.23;7.47;;;;;;;6.89;69.93;98900.63;5095222;28;20244;-84
2023/12/12 06:27:42;;;;;;;18.20;8.23;;;;;;;6.93;70.36;98913.47;5113126;28;20187;-85
2023/12/12 06:30:09;;;;;;;15.00;7.17;;;;;;;6.98;70.73;98923.69;5112931;28;20226;-85
2023/12/12 06:32:34;;;;;;;14.47;7.83;;;;;;;7.12;70.83;98937.00;5113628;28;20176;-85
2023/12/12 06:35:00;;;;;;;18.87;7.60;;;;;;;7.17;70.93;98942.88;5094877;28;20695;-85
2023/12/12 06:37:25;;;;;;;14.47;7.27;;;;;;;7.25;70.28;98940.78;5095062;28;20183;-85
2023/12/12 06:39:52;;;;;;;17.60;6.97;;;;;;;7.31;70.92;98937.94;5112979;28;20171;-85
2023/12/12 06:42:17;;;;;;;13.97;6.90;;;;;;;7.35;71.65;98939.47;5098346;28;20291;-85
2023/12/12 06:44:44;;;;;;;14.97;6.83;;;;;;;7.40;71.38;98934.91;5098714;28;20653;-85
2023/12/12 06:47:11;;;;;;;18.30;9.73;;;;;;;7.40;73.23;98937.53;5116891;28;20179;-85
2023/12/12 06:49:37;;;;;;;18.33;7.87;;;;;;;7.53;72.41;98949.13;5116510;28;20188;-85
2023/12/12 06:52:04;;;;;;;12.63;7.13;;;;;;;7.69;72.01;98952.75;5098591;28;20622;-85
2023/12/12 06:54:30;;;;;;;17.60;7.87;;;;;;;7.79;71.66;98947.97;5117191;28;20253;-85
2023/12/12 06:56:55;;;;;;;17.53;8.27;;;;;;;7.80;70.90;98950.53;5098365;28;20197;-85
2023/12/12 06:59:21;;;;;;;17.43;8.47;;;;;;;7.83;70.33;98950.41;5098007;28;20186;-85
2023/12/12 07:01:47;;;;;;;17.67;7.43;;;;;;;7.83;70.23;98947.78;5116854;28;20186;-85
2023/12/12 07:04:13;;;;;;;12.50;7.33;;;;;;;7.80;70.25;98942.69;5098656;28;20172;-85
2023/12/12 07:06:41;;;;;;;17.80;8.47;;;;;;;7.76;71.25;98935.91;5098265;28;20175;-85
2023/12/12 07:09:10;;;;;;;16.97;8.03;;;;;;;7.83;70.53;98929.53;5098136;28;20199;-85
2023/12/12 07:11:37;;;;;;;18.40;8.23;;;;;;;7.82;71.32;98930.44;5098199;28;20190;-85
2023/12/12 07:14:03;;;;;;;13.00;7.40;;;;;;;7.93;71.19;98930.81;5116150;28;20200;-86
2023/12/12 07:16:30;;;;;;;18.23;8.43;;;;;;;8.09;71.21;98924.88;5116353;28;20172;-85
2023/12/12 07:18:58;;;;;;;22.73;9.80;;;;;;;8.19;71.13;98936.59;5115023;28;20241;-86
2023/12/12 07:21:25;;;;;;;21.40;10.50;;;;;;;8.34;70.38;98930.69;5116227;28;20619;-86
2023/12/12 07:23:53;;;;;;;23.47;10.87;;;;;;;8.38;69.99;98930.47;5115971;28;20194;-86
2023/12/12 07:26:24;;;;;;;20.10;10.67;;;;;;;8.47;70.35;98921.34;5098195;28;20276;-86
2023/12/12 07:28:49;;;;;;;20.00;9.43;;;;;;;8.51;70.65;98917.69;5098075;28;20223;-86
2023/12/12 07:31:16;;;;;;;23.43;11.93;;;;;;;8.39;71.14;98913.88;5097857;28;20222;-86
2023/12/12 07:33:42;;;;;;;33.17;14.97;;;;;;;8.43;71.60;98919.81;5097413;28;20190;-86
2023/12/12 07:36:09;;;;;;;31.90;14.27;;;;;;;8.46;71.74;98919.66;5116279;28;20172;-86
2023/12/12 07:38:35;;;;;;;34.37;14.67;;;;;;;8.56;72.05;98933.97;5097985;28;20170;-86
2023/12/12 07:41:01;;;;;;;32.10;14.50;;;;;;;8.73;71.69;98941.00;5115491;28;20185;-86
2023/12/12 07:43:28;;;;;;;29.80;14.57;;;;;;;8.92;72.21;98940.03;5115543;28;20191;-86
2023/12/12 07:45:55;;;;;;;25.97;14.33;;;;;;;9.15;73.09;98942.34;5115833;28;20178;-86
2023/12/12 07:48:20;;;;;;;32.43;14.43;;;;;;;9.36;73.65;98939.56;5097382;28;20192;-87
2023/12/12 07:50:47;;;;;;;27.53;12.47;;;;;;;9.53;73.35;98937.81;5116251;28;20187;-87
2023/12/12 07:53:14;;;;;;;25.30;12.20;;;;;;;9.76;71.39;98939.22;5096223;28;20698;-87
2023/12/12 07:55:39;;;;;;;31.77;12.90;;;;;;;9.84;70.76;98935.28;5115696;28;20521;-87
2023/12/12 07:58:07;;;;;;;30.30;13.40;;;;;;;9.78;70.19;98943.47;5095118;28;20179;-87
2023/12/12 08:00:32;;;;;;;26.97;11.60;;;;;;;9.71;68.75;98949.09;5100059;28;20179;-87
2023/12/12 08:03:00;;;;;;;28.40;12.87;;;;;;;9.77;69.95;98946.16;5115476;28;20537;-87
2023/12/12 08:05:25;;;;;;;29.83;12.93;;;;;;;9.84;69.56;98945.78;5115029;28;20319;-87
2023/12/12 08:07:52;;;;;;;27.90;12.77;;;;;;;9.96;69.68;98946.88;5097446;28;20281;-87
2023/12/12 08:10:18;;;;;;;29.57;11.33;;;;;;;10.11;68.01;98946.06;5097294;28;20209;-87
2023/12/12 08:12:45;;;;;;;29.53;12.13;;;;;;;10.24;68.57;98952.38;5115159;28;20183;-88
2023/12/12 08:15:11;;;;;;;28.87;12.70;;;;;;;10.42;68.59;98946.13;5114957;28;20160;-87
2023/12/12 08:17:38;;;;;;;27.27;12.80;;;;;;;10.58;69.04;98942.66;5115023;28;20202;-88
2023/12/12 08:20:06;;;;;;;26.07;11.97;;;;;;;10.61;68.70;98934.63;5114812;28;20175;-87
2023/12/12 08:22:32;;;;;;;25.70;11.93;;;;;;;10.78;69.04;98931.91;5114582;28;20175;-88
2023/12/12 08:24:57;;;;;;;24.60;12.03;;;;;;;10.84;67.47;98936.81;5114927;28;20233;-88
2023/12/12 08:27:24;;;;;;;33.17;13.30;;;;;;;10.94;66.56;98943.22;5114636;28;20182;-88
2023/12/12 08:29:50;;;;;;;18.30;9.67;;;;;;;11.05;66.83;98936.44;5114471;28;20283;-88
2023/12/12 08:32:16;;;;;;;21.47;10.97;;;;;;;11.28;66.85;98936.84;5114598;28;20192;-88
2023/12/12 08:34:44;;;;;;;23.00;10.13;;;;;;;11.34;65.26;98942.59;5114592;28;20176;-88
2023/12/12 08:37:10;;;;;;;21.63;10.13;;;;;;;11.51;65.47;98931.94;5114736;28;20186;-88
2023/12/12 08:39:38;;;;;;;22.43;11.03;;;;;;;11.85;65.04;98922.06;5114749;28;20175;-88
2023/12/12 08:42:05;;;;;;;26.97;11.17;;;;;;;11.88;63.68;98920.09;5096369;28;20600;-89
2023/12/12 08:44:32;;;;;;;23.43;10.47;;;;;;;12.22;62.45;98916.22;5096576;28;20687;-88
2023/12/12 08:46:58;;;;;;;20.30;9.57;;;;;;;12.42;61.47;98926.31;5114531;28;20638;-89
2023/12/12 08:49:25;;;;;;;25.13;11.47;;;;;;;12.58;60.89;98923.59;5114540;28;20201;-89
2023/12/12 08:51:51;;;;;;;30.20;11.97;;;;;;;12.47;59.75;98924.28;5114091;28;20633;-88
2023/12/12 08:54:16;;;;;;;24.87;11.63;;;;;;;12.58;60.23;98913.88;5114230;28;20193;-89
2023/12/12 08:56:42;;;;;;;32.67;12.30;;;;;;;12.74;58.09;98919.84;5114422;28;20178;-89
2023/12/12 08:59:09;;;;;;;27.33;11.33;;;;;;;12.92;59.14;98908.13;5096603;28;20176;-89
2023/12/12 09:01:36;;;;;;;22.80;10.33;;;;;;;13.04;58.83;98898.59;5095976;28;20210;-89
2023/12/12 09:04:02;;;;;;;25.47;12.17;;;;;;;13.09;58.81;98901.78;5113874;28;20251;-89
2023/12/12 09:06:28;;;;;;;24.30;11.70;;;;;;;13.07;58.99;98897.56;5114671;28;20178;-89
2023/12/12 09:08:55;;;;;;;31.37;12.77;;;;;;;13.22;59.39;98902.66;5114053;28;20195;-89
2023/12/12 09:11:22;;;;;;;35.40;17.80;;;;;;;13.09;57.95;98904.44;5114098;28;20187;-89
2023/12/12 09:13:48;;;;;;;34.57;17.70;;;;;;;13.25;58.11;98904.25;5114142;28;20566;-89
2023/12/12 09:16:13;;;;;;;37.73;18.20;;;;;;;13.35;57.76;98900.03;5113946;28;20179;-89
2023/12/12 09:18:39;;;;;;;35.47;17.37;;;;;;;13.27;57.83;98895.31;5114339;28;20175;-89
2023/12/12 09:21:06;;;;;;;30.10;16.57;;;;;;;13.50;57.36;98901.63;5113944;28;20167;-90
2023/12/12 09:23:33;;;;;;;31.67;16.63;;;;;;;13.77;55.92;98891.00;5113806;28;20520;-89
2023/12/12 09:25:59;;;;;;;38.33;16.57;;;;;;;13.93;55.64;98881.94;5113798;28;20172;-89
2023/12/12 09:28:26;;;;;;;34.70;18.07;;;;;;;14.01;56.09;98879.59;5114065;28;20179;-90
2023/12/12 09:30:51;;;;;;;35.07;17.53;;;;;;;14.08;54.72;98878.22;5114574;28;20202;-90
2023/12/12 09:33:18;;;;;;;34.10;16.33;;;;;;;13.90;53.47;98871.59;5095870;28;20615;-89
2023/12/12 09:35:45;;;;;;;28.13;15.93;;;;;;;14.00;54.40;98872.63;5113755;28;20183;-90
2023/12/12 09:38:11;;;;;;;31.50;14.60;;;;;;;14.29;54.91;98867.91;5095391;28;20280;-90
2023/12/12 09:40:39;;;;;;;28.20;15.10;;;;;;;14.51;55.31;98861.97;5113893;28;20170;-90
2023/12/12 09:43:06;;;;;;;35.17;17.00;;;;;;;14.52;54.00;98863.63;5095694;28;20203;-90
2023/12/12 09:45:32;;;;;;;28.17;15.13;;;;;;;14.69;53.66;98861.47;5095672;28;20199;-91
2023/12/12 09:47:59;;;;;;;28.23;12.60;;;;;;;14.75;53.99;98854.91;5113751;28;20180;-90
2023/12/12 09:50:27;;;;;;;21.30;10.90;;;;;;;14.84;53.17;98851.56;5095835;28;20195;-91
2023/12/12 09:52:53;;;;;;;20.83;9.83;;;;;;;15.07;53.20;98848.03;5096143;28;20181;-90
2023/12/12 09:55:26;;;;;;;14.97;7.80;;;;;;;15.25;52.25;98851.94;5096202;28;20574;-91
2023/12/12 09:57:58;;;;;;;14.50;7.00;;;;;;;15.44;51.51;98847.88;5096540;28;20520;-91
2023/12/12 10:00:58;;;;;;;11.27;5.53;;;;;;;15.31;50.28;98848.84;5096388;28;20167;-91
2023/12/12 10:07:23;;;;;;;;;;;;;;;;;;;;;
2023/12/12 10:13:54;;;;;;;;;;;;;;;;;;;;;
2023/12/12 10:40:43;;;;;;;9.03;4.37;;;;;;;17.15;45.47;98825.13;4756970;30;20241;-92
2023/12/12 10:54:06;;;;;;;6.13;2.87;;;;;;;16.81;42.46;98826.25;4788701;30;20659;-90
2023/12/12 10:56:35;;;;;;;11.03;3.80;;;;;;;16.64;42.60;98825.97;4786518;29;20625;-91
2023/12/12 10:59:15;;;;;;;8.57;4.27;;;;;;;16.65;43.04;98839.06;4786818;29;20644;-92
2023/12/12 11:02:04;;;;;;;;;;;;;;;;;;;;;
2023/12/12 11:04:33;;;;;;;10.53;4.33;;;;;;;17.06;42.00;98822.38;4907856;29;20215;-91
2023/12/12 11:07:33;;;;;;;;;;;;;;;;;;;;;
2023/12/12 11:10:53;;;;;;;;;;;;;;;;;;;;;
2023/12/12 11:21:21;;;;;;;;;;;;;;;;;;;;;
2023/12/12 11:24:46;;;;;;;;;;;;;;;;;;;;;
2023/12/12 11:30:56;;;;;;;13.93;6.23;;;;;;;18.10;43.42;98820.44;4978275;28;20225;-91
2023/12/12 11:33:21;;;;;;;15.83;6.47;;;;;;;18.01;43.59;98815.94;4984141;28;20214;-92
2023/12/12 11:42:44;;;;;;;8.50;4.13;;;;;;;17.87;43.06;98822.47;5055083;28;20195;-92
2023/12/12 11:45:59;;;;;;;;;;;;;;;;;;;;;
2023/12/12 11:56:26;;;;;;;9.87;5.10;;;;;;;18.28;41.65;98810.84;5047762;28;20205;-93
2023/12/12 11:59:42;;;;;;;11.60;4.33;;;;;;;18.02;41.47;98820.28;4969637;28;20352;-92
2023/12/12 12:09:43;;;;;;;;;;;;;;;;;;;;;
2023/12/12 12:33:57;;;;;;;7.00;3.40;;;;;;;18.12;39.91;98782.19;4860605;29;20750;-92
2023/12/12 12:37:01;;;;;;;;;;;;;;;;;;;;;
2023/12/12 12:43:29;;;;;;;;;;;;;;;;;;;;;
2023/12/12 13:03:35;;;;;;;;;;;;;;;;;;;;;
2023/12/12 13:10:02;;;;;;;;;;;;;;;;;;;;;
2023/12/12 13:12:54;;;;;;;8.40;3.37;;;;;;;18.69;39.77;98785.91;4927229;28;20193;-91
2023/12/12 13:15:58;;;;;;;7.47;3.77;;;;;;;18.84;39.83;98787.19;5012229;28;20226;-91
2023/12/12 13:18:36;;;;;;;;;;;;;;;;;;;;;
2023/12/12 13:22:03;;;;;;;9.37;4.90;;;;;;;19.19;39.83;98807.81;5012698;28;20197;-91
2023/12/12 13:24:38;;;;;;;7.33;3.33;;;;;;;19.42;38.89;98801.22;5012058;28;20222;-91
2023/12/12 13:27:07;;;;;;;7.67;3.70;;;;;;;19.23;39.09;98817.19;5012686;28;20673;-92
2023/12/12 13:29:35;;;;;;;9.23;3.87;;;;;;;19.25;38.78;98816.06;5013007;28;20225;-91
2023/12/12 13:32:15;;;;;;;6.27;2.83;;;;;;;19.22;39.39;98826.13;4995903;28;20280;-91
2023/12/12 13:34:45;;;;;;;6.73;3.17;;;;;;;19.24;39.00;98824.16;5012712;28;20171;-91
2023/12/12 13:37:21;;;;;;;7.87;3.63;;;;;;;19.07;39.21;98823.09;4995584;28;20186;-91
2023/12/12 13:40:08;;;;;;;7.90;3.33;;;;;;;19.06;39.24;98825.88;5088325;28;20214;-91
2023/12/12 13:42:38;;;;;;;7.37;2.90;;;;;;;19.07;39.08;98828.41;5076382;28;20172;-91
2023/12/12 13:45:08;;;;;;;7.70;3.57;;;;;;;19.18;38.67;98832.72;5076056;28;20271;-91
2023/12/12 13:47:39;;;;;;;6.60;3.20;;;;;;;19.14;39.41;98840.13;5093856;28;20184;-91
2023/12/12 13:50:21;;;;;;;7.13;3.30;;;;;;;19.16;38.74;98839.97;5076638;28;20203;-90
2023/12/12 13:52:48;;;;;;;9.87;4.10;;;;;;;19.20;39.59;98838.72;5080275;28;20168;-91
2023/12/12 13:55:18;;;;;;;9.77;4.07;;;;;;;19.16;39.11;98838.16;5096913;28;20172;-91
2023/12/12 13:57:45;;;;;;;10.70;4.27;;;;;;;19.07;39.72;98839.03;5097265;28;20267;-91